sensor_id;sensor_type;location;lat;lon;timestamp;temperature;humidity
25877;DHT22;13692;47.480;19.216;2023-05-07T00:02:13;15.80;99.90
25877;DHT22;13692;47.480;19.216;2023-05-07T00:04:41;15.70;99.90
25877;DHT22;13692;47.480;19.216;2023-05-07T00:07:08;15.70;99.90
25877;DHT22;13692;47.480;19.216;2023-05-07T00:09:35;15.70;99.90
25877;DHT22;13692;47.480;19.216;2023-05-07T00:12:02;15.70;99.90
25877;DHT22;13692;47.480;19.216;2023-05-07T00:14:29;15.60;99.90
25877;DHT22;13692;47.480;19.216;2023-05-07T00:16:56;15.60;99.90
25877;DHT22;13692;47.480;19.216;2023-05-07T00:19:23;15.60;99.90
25877;DHT22;13692;47.480;19.216;2023-05-07T00:21:50;15.60;99.90
25877;DHT22;13692;47.480;19.216;2023-05-07T00:24:20;15.60;99.90
25877;DHT22;13692;47.480;19.216;2023-05-07T00:26:47;15.60;99.90
25877;DHT22;13692;47.480;19.216;2023-05-07T00:29:15;15.50;99.90
25877;DHT22;13692;47.480;19.216;2023-05-07T00:31:42;15.50;99.90
25877;DHT22;13692;47.480;19.216;2023-05-07T00:34:09;15.50;99.90
25877;DHT22;13692;47.480;19.216;2023-05-07T00:36:36;15.50;99.90
25877;DHT22;13692;47.480;19.216;2023-05-07T00:39:03;15.50;99.90
25877;DHT22;13692;47.480;19.216;2023-05-07T00:41:30;15.50;99.90
25877;DHT22;13692;47.480;19.216;2023-05-07T00:43:57;15.40;99.90
25877;DHT22;13692;47.480;19.216;2023-05-07T00:46:24;15.30;99.90
25877;DHT22;13692;47.480;19.216;2023-05-07T00:48:53;15.30;99.90
25877;DHT22;13692;47.480;19.216;2023-05-07T00:51:20;15.20;99.90
25877;DHT22;13692;47.480;19.216;2023-05-07T00:53:48;15.20;99.90
25877;DHT22;13692;47.480;19.216;2023-05-07T00:56:15;15.20;99.90
25877;DHT22;13692;47.480;19.216;2023-05-07T00:58:42;15.20;99.90
25877;DHT22;13692;47.480;19.216;2023-05-07T01:01:09;15.20;99.90
25877;DHT22;13692;47.480;19.216;2023-05-07T01:03:37;15.10;99.90
25877;DHT22;13692;47.480;19.216;2023-05-07T01:06:05;15.00;99.90
25877;DHT22;13692;47.480;19.216;2023-05-07T01:08:34;15.00;99.90
25877;DHT22;13692;47.480;19.216;2023-05-07T01:11:02;15.00;99.90
25877;DHT22;13692;47.480;19.216;2023-05-07T01:13:30;14.90;99.90
25877;DHT22;13692;47.480;19.216;2023-05-07T01:15:57;14.80;99.90
25877;DHT22;13692;47.480;19.216;2023-05-07T01:18:24;14.80;99.90
25877;DHT22;13692;47.480;19.216;2023-05-07T01:20:52;14.70;99.90
25877;DHT22;13692;47.480;19.216;2023-05-07T01:23:20;14.70;99.90
25877;DHT22;13692;47.480;19.216;2023-05-07T01:25:54;14.70;99.90
25877;DHT22;13692;47.480;19.216;2023-05-07T01:28:21;14.80;99.90
25877;DHT22;13692;47.480;19.216;2023-05-07T01:30:53;14.80;99.90
25877;DHT22;13692;47.480;19.216;2023-05-07T01:33:22;14.80;99.90
25877;DHT22;13692;47.480;19.216;2023-05-07T01:35:53;14.80;99.90
25877;DHT22;13692;47.480;19.216;2023-05-07T01:38:22;14.90;99.90
25877;DHT22;13692;47.480;19.216;2023-05-07T01:40:49;14.90;99.90
25877;DHT22;13692;47.480;19.216;2023-05-07T01:43:17;14.90;99.90
25877;DHT22;13692;47.480;19.216;2023-05-07T01:45:44;14.90;99.90
25877;DHT22;13692;47.480;19.216;2023-05-07T01:48:14;15.00;99.90
25877;DHT22;13692;47.480;19.216;2023-05-07T01:50:42;14.90;99.90
25877;DHT22;13692;47.480;19.216;2023-05-07T01:53:10;14.90;99.90
25877;DHT22;13692;47.480;19.216;2023-05-07T01:55:36;14.90;99.90
25877;DHT22;13692;47.480;19.216;2023-05-07T01:58:04;14.90;99.90
25877;DHT22;13692;47.480;19.216;2023-05-07T02:00:31;14.80;99.90
25877;DHT22;13692;47.480;19.216;2023-05-07T02:02:58;14.80;99.90
25877;DHT22;13692;47.480;19.216;2023-05-07T02:05:25;14.70;99.90
25877;DHT22;13692;47.480;19.216;2023-05-07T02:07:52;14.60;99.90
25877;DHT22;13692;47.480;19.216;2023-05-07T02:10:19;14.50;99.90
25877;DHT22;13692;47.480;19.216;2023-05-07T02:12:46;14.50;99.90
25877;DHT22;13692;47.480;19.216;2023-05-07T02:15:16;14.40;99.90
25877;DHT22;13692;47.480;19.216;2023-05-07T02:18:05;14.40;99.90
25877;DHT22;13692;47.480;19.216;2023-05-07T02:20:33;14.40;99.90
25877;DHT22;13692;47.480;19.216;2023-05-07T02:23:00;14.40;99.90
25877;DHT22;13692;47.480;19.216;2023-05-07T02:25:27;14.30;99.90
25877;DHT22;13692;47.480;19.216;2023-05-07T02:27:54;14.20;99.90
25877;DHT22;13692;47.480;19.216;2023-05-07T02:30:21;14.20;99.90
25877;DHT22;13692;47.480;19.216;2023-05-07T02:32:48;14.20;99.90
25877;DHT22;13692;47.480;19.216;2023-05-07T02:35:15;14.10;99.90
25877;DHT22;13692;47.480;19.216;2023-05-07T02:37:42;14.10;99.90
25877;DHT22;13692;47.480;19.216;2023-05-07T02:40:10;14.10;99.90
25877;DHT22;13692;47.480;19.216;2023-05-07T02:42:38;14.00;99.90
25877;DHT22;13692;47.480;19.216;2023-05-07T02:45:05;14.00;99.90
25877;DHT22;13692;47.480;19.216;2023-05-07T02:47:32;13.90;99.90
25877;DHT22;13692;47.480;19.216;2023-05-07T02:49:59;13.90;99.90
25877;DHT22;13692;47.480;19.216;2023-05-07T02:52:26;13.90;99.90
25877;DHT22;13692;47.480;19.216;2023-05-07T02:54:53;13.90;99.90
25877;DHT22;13692;47.480;19.216;2023-05-07T02:57:20;13.90;99.90
25877;DHT22;13692;47.480;19.216;2023-05-07T02:59:47;13.80;99.90
25877;DHT22;13692;47.480;19.216;2023-05-07T03:02:14;13.70;99.90
25877;DHT22;13692;47.480;19.216;2023-05-07T03:04:41;13.70;99.90
25877;DHT22;13692;47.480;19.216;2023-05-07T03:07:08;13.70;99.90
25877;DHT22;13692;47.480;19.216;2023-05-07T03:09:35;13.70;99.90
25877;DHT22;13692;47.480;19.216;2023-05-07T03:12:01;13.70;99.90
25877;DHT22;13692;47.480;19.216;2023-05-07T03:14:28;13.60;99.90
25877;DHT22;13692;47.480;19.216;2023-05-07T03:16:55;13.60;99.90
25877;DHT22;13692;47.480;19.216;2023-05-07T03:19:22;13.50;99.90
25877;DHT22;13692;47.480;19.216;2023-05-07T03:21:49;13.50;99.90
25877;DHT22;13692;47.480;19.216;2023-05-07T03:24:19;13.40;99.90
25877;DHT22;13692;47.480;19.216;2023-05-07T03:26:46;13.40;99.90
25877;DHT22;13692;47.480;19.216;2023-05-07T03:29:13;13.40;99.90
25877;DHT22;13692;47.480;19.216;2023-05-07T03:31:40;13.40;99.90
25877;DHT22;13692;47.480;19.216;2023-05-07T03:34:07;13.40;99.90
25877;DHT22;13692;47.480;19.216;2023-05-07T03:36:34;13.50;99.90
25877;DHT22;13692;47.480;19.216;2023-05-07T03:39:01;13.50;99.90
25877;DHT22;13692;47.480;19.216;2023-05-07T03:41:28;13.60;99.90
25877;DHT22;13692;47.480;19.216;2023-05-07T03:43:56;13.60;99.90
25877;DHT22;13692;47.480;19.216;2023-05-07T03:46:23;13.60;99.90
25877;DHT22;13692;47.480;19.216;2023-05-07T03:48:52;13.70;99.90
25877;DHT22;13692;47.480;19.216;2023-05-07T03:51:19;13.70;99.90
25877;DHT22;13692;47.480;19.216;2023-05-07T03:53:46;13.70;99.90
25877;DHT22;13692;47.480;19.216;2023-05-07T03:56:13;13.80;99.90
25877;DHT22;13692;47.480;19.216;2023-05-07T03:58:41;13.90;99.90
25877;DHT22;13692;47.480;19.216;2023-05-07T04:01:08;13.90;99.90
25877;DHT22;13692;47.480;19.216;2023-05-07T04:03:36;14.00;99.90
25877;DHT22;13692;47.480;19.216;2023-05-07T04:06:03;13.90;99.90
25877;DHT22;13692;47.480;19.216;2023-05-07T04:08:30;14.00;99.90
25877;DHT22;13692;47.480;19.216;2023-05-07T04:10:58;14.00;99.90
25877;DHT22;13692;47.480;19.216;2023-05-07T04:13:27;14.00;99.90
25877;DHT22;13692;47.480;19.216;2023-05-07T04:15:55;14.20;99.90
25877;DHT22;13692;47.480;19.216;2023-05-07T04:18:22;14.20;99.90
25877;DHT22;13692;47.480;19.216;2023-05-07T04:20:49;14.30;99.90
25877;DHT22;13692;47.480;19.216;2023-05-07T04:23:16;14.40;99.90
25877;DHT22;13692;47.480;19.216;2023-05-07T04:25:43;14.50;99.90
25877;DHT22;13692;47.480;19.216;2023-05-07T04:28:10;14.50;99.90
25877;DHT22;13692;47.480;19.216;2023-05-07T04:30:38;14.60;99.90
25877;DHT22;13692;47.480;19.216;2023-05-07T04:33:05;14.60;99.90
25877;DHT22;13692;47.480;19.216;2023-05-07T04:35:33;14.70;99.90
25877;DHT22;13692;47.480;19.216;2023-05-07T04:38:00;14.80;99.90
25877;DHT22;13692;47.480;19.216;2023-05-07T04:40:28;15.00;99.90
25877;DHT22;13692;47.480;19.216;2023-05-07T04:42:55;15.10;99.90
25877;DHT22;13692;47.480;19.216;2023-05-07T04:45:22;15.10;99.90
25877;DHT22;13692;47.480;19.216;2023-05-07T04:47:48;15.30;99.90
25877;DHT22;13692;47.480;19.216;2023-05-07T04:50:15;15.50;99.90
25877;DHT22;13692;47.480;19.216;2023-05-07T04:52:42;15.90;99.90
25877;DHT22;13692;47.480;19.216;2023-05-07T04:55:09;16.20;99.90
25877;DHT22;13692;47.480;19.216;2023-05-07T04:57:36;16.30;99.90
25877;DHT22;13692;47.480;19.216;2023-05-07T05:00:06;16.30;99.90
25877;DHT22;13692;47.480;19.216;2023-05-07T05:02:35;16.50;99.90
25877;DHT22;13692;47.480;19.216;2023-05-07T05:05:02;17.20;99.90
25877;DHT22;13692;47.480;19.216;2023-05-07T05:07:29;17.70;99.90
25877;DHT22;13692;47.480;19.216;2023-05-07T05:09:56;17.70;99.90
25877;DHT22;13692;47.480;19.216;2023-05-07T05:12:24;17.60;99.90
25877;DHT22;13692;47.480;19.216;2023-05-07T05:14:52;17.50;99.90
25877;DHT22;13692;47.480;19.216;2023-05-07T05:17:19;17.50;99.90
25877;DHT22;13692;47.480;19.216;2023-05-07T05:19:46;17.70;99.90
25877;DHT22;13692;47.480;19.216;2023-05-07T05:22:13;18.30;99.90
25877;DHT22;13692;47.480;19.216;2023-05-07T05:24:40;19.30;99.90
25877;DHT22;13692;47.480;19.216;2023-05-07T05:27:06;19.70;99.90
25877;DHT22;13692;47.480;19.216;2023-05-07T05:29:33;19.60;99.90
25877;DHT22;13692;47.480;19.216;2023-05-07T05:32:00;19.40;99.90
25877;DHT22;13692;47.480;19.216;2023-05-07T05:34:27;19.40;99.90
25877;DHT22;13692;47.480;19.216;2023-05-07T05:36:54;19.60;99.90
25877;DHT22;13692;47.480;19.216;2023-05-07T05:39:21;19.70;99.90
25877;DHT22;13692;47.480;19.216;2023-05-07T05:41:49;19.70;99.90
25877;DHT22;13692;47.480;19.216;2023-05-07T05:44:16;20.20;99.90
25877;DHT22;13692;47.480;19.216;2023-05-07T05:46:43;21.00;99.90
25877;DHT22;13692;47.480;19.216;2023-05-07T05:49:10;21.70;99.90
25877;DHT22;13692;47.480;19.216;2023-05-07T05:51:37;22.20;99.90
25877;DHT22;13692;47.480;19.216;2023-05-07T05:54:04;22.70;99.90
25877;DHT22;13692;47.480;19.216;2023-05-07T05:56:31;22.90;99.90
25877;DHT22;13692;47.480;19.216;2023-05-07T05:58:58;23.20;99.90
25877;DHT22;13692;47.480;19.216;2023-05-07T06:01:25;23.50;99.90
25877;DHT22;13692;47.480;19.216;2023-05-07T06:03:52;23.60;99.90
25877;DHT22;13692;47.480;19.216;2023-05-07T06:06:19;23.80;99.90
25877;DHT22;13692;47.480;19.216;2023-05-07T06:08:45;24.10;99.90
25877;DHT22;13692;47.480;19.216;2023-05-07T06:11:12;24.10;99.90
25877;DHT22;13692;47.480;19.216;2023-05-07T06:13:39;23.90;99.90
25877;DHT22;13692;47.480;19.216;2023-05-07T06:16:06;23.90;99.90
25877;DHT22;13692;47.480;19.216;2023-05-07T06:18:33;24.30;99.90
25877;DHT22;13692;47.480;19.216;2023-05-07T06:21:02;24.70;99.90
25877;DHT22;13692;47.480;19.216;2023-05-07T06:23:29;25.20;99.90
25877;DHT22;13692;47.480;19.216;2023-05-07T06:25:56;25.50;99.90
25877;DHT22;13692;47.480;19.216;2023-05-07T06:28:23;25.60;99.90
25877;DHT22;13692;47.480;19.216;2023-05-07T06:30:50;25.70;99.90
25877;DHT22;13692;47.480;19.216;2023-05-07T06:33:17;25.90;99.90
25877;DHT22;13692;47.480;19.216;2023-05-07T06:35:46;26.20;99.90
25877;DHT22;13692;47.480;19.216;2023-05-07T06:38:13;26.10;99.90
25877;DHT22;13692;47.480;19.216;2023-05-07T06:40:40;26.30;99.90
25877;DHT22;13692;47.480;19.216;2023-05-07T06:43:06;26.60;99.90
25877;DHT22;13692;47.480;19.216;2023-05-07T06:45:33;26.70;99.90
25877;DHT22;13692;47.480;19.216;2023-05-07T06:48:00;26.80;99.90
25877;DHT22;13692;47.480;19.216;2023-05-07T06:50:27;27.00;99.90
25877;DHT22;13692;47.480;19.216;2023-05-07T06:52:54;27.20;99.90
25877;DHT22;13692;47.480;19.216;2023-05-07T06:55:21;27.20;99.30
25877;DHT22;13692;47.480;19.216;2023-05-07T06:57:48;27.10;97.90
25877;DHT22;13692;47.480;19.216;2023-05-07T07:00:15;27.10;98.70
25877;DHT22;13692;47.480;19.216;2023-05-07T07:02:42;27.30;97.70
25877;DHT22;13692;47.480;19.216;2023-05-07T07:05:10;27.20;97.30
25877;DHT22;13692;47.480;19.216;2023-05-07T07:07:37;27.00;96.30
25877;DHT22;13692;47.480;19.216;2023-05-07T07:10:04;26.90;95.50
25877;DHT22;13692;47.480;19.216;2023-05-07T07:12:31;27.10;94.30
25877;DHT22;13692;47.480;19.216;2023-05-07T07:14:58;26.80;94.20
25877;DHT22;13692;47.480;19.216;2023-05-07T07:17:25;26.80;94.70
25877;DHT22;13692;47.480;19.216;2023-05-07T07:19:52;26.90;94.90
25877;DHT22;13692;47.480;19.216;2023-05-07T07:22:19;27.20;93.20
25877;DHT22;13692;47.480;19.216;2023-05-07T07:24:46;26.80;92.70
25877;DHT22;13692;47.480;19.216;2023-05-07T07:27:13;26.50;93.40
25877;DHT22;13692;47.480;19.216;2023-05-07T07:29:40;26.70;94.30
25877;DHT22;13692;47.480;19.216;2023-05-07T07:32:07;27.00;94.30
25877;DHT22;13692;47.480;19.216;2023-05-07T07:34:34;27.30;94.40
25877;DHT22;13692;47.480;19.216;2023-05-07T07:37:01;27.60;92.90
25877;DHT22;13692;47.480;19.216;2023-05-07T07:39:32;27.10;91.90
25877;DHT22;13692;47.480;19.216;2023-05-07T07:41:59;26.60;92.50
25877;DHT22;13692;47.480;19.216;2023-05-07T07:44:27;26.30;94.20
25877;DHT22;13692;47.480;19.216;2023-05-07T07:46:54;26.00;94.20
25877;DHT22;13692;47.480;19.216;2023-05-07T07:49:22;25.80;94.30
25877;DHT22;13692;47.480;19.216;2023-05-07T07:51:49;25.90;95.00
25877;DHT22;13692;47.480;19.216;2023-05-07T07:54:16;26.40;94.50
25877;DHT22;13692;47.480;19.216;2023-05-07T07:56:43;26.60;93.30
25877;DHT22;13692;47.480;19.216;2023-05-07T07:59:10;26.60;93.30
25877;DHT22;13692;47.480;19.216;2023-05-07T08:01:37;27.20;92.90
25877;DHT22;13692;47.480;19.216;2023-05-07T08:04:04;27.90;92.10
25877;DHT22;13692;47.480;19.216;2023-05-07T08:06:32;28.20;91.60
25877;DHT22;13692;47.480;19.216;2023-05-07T08:08:59;28.40;90.10
25877;DHT22;13692;47.480;19.216;2023-05-07T08:11:26;28.50;90.60
25877;DHT22;13692;47.480;19.216;2023-05-07T08:13:54;28.40;90.30
25877;DHT22;13692;47.480;19.216;2023-05-07T08:16:21;28.20;90.30
25877;DHT22;13692;47.480;19.216;2023-05-07T08:18:49;27.80;91.30
25877;DHT22;13692;47.480;19.216;2023-05-07T08:21:17;27.40;91.00
25877;DHT22;13692;47.480;19.216;2023-05-07T08:23:43;26.90;90.80
25877;DHT22;13692;47.480;19.216;2023-05-07T08:26:11;26.50;91.90
25877;DHT22;13692;47.480;19.216;2023-05-07T08:28:38;26.40;92.50
25877;DHT22;13692;47.480;19.216;2023-05-07T08:31:06;26.20;91.60
25877;DHT22;13692;47.480;19.216;2023-05-07T08:33:33;26.00;92.70
25877;DHT22;13692;47.480;19.216;2023-05-07T08:36:00;25.70;93.10
25877;DHT22;13692;47.480;19.216;2023-05-07T08:38:27;25.50;92.60
25877;DHT22;13692;47.480;19.216;2023-05-07T08:40:53;25.20;92.70
25877;DHT22;13692;47.480;19.216;2023-05-07T08:43:21;25.00;93.50
25877;DHT22;13692;47.480;19.216;2023-05-07T08:45:53;24.70;93.40
25877;DHT22;13692;47.480;19.216;2023-05-07T08:48:24;24.50;95.00
25877;DHT22;13692;47.480;19.216;2023-05-07T08:50:52;24.40;95.70
25877;DHT22;13692;47.480;19.216;2023-05-07T08:53:20;24.20;95.80
25877;DHT22;13692;47.480;19.216;2023-05-07T08:55:47;24.10;95.30
25877;DHT22;13692;47.480;19.216;2023-05-07T08:58:15;24.00;96.00
25877;DHT22;13692;47.480;19.216;2023-05-07T09:00:42;23.90;95.70
25877;DHT22;13692;47.480;19.216;2023-05-07T09:03:09;24.00;95.80
25877;DHT22;13692;47.480;19.216;2023-05-07T09:05:39;24.00;95.80
25877;DHT22;13692;47.480;19.216;2023-05-07T09:08:07;24.30;95.40
25877;DHT22;13692;47.480;19.216;2023-05-07T09:10:34;24.70;95.90
25877;DHT22;13692;47.480;19.216;2023-05-07T09:13:02;24.80;95.80
25877;DHT22;13692;47.480;19.216;2023-05-07T09:15:29;24.80;96.00
25877;DHT22;13692;47.480;19.216;2023-05-07T09:18:00;24.70;96.40
25877;DHT22;13692;47.480;19.216;2023-05-07T09:20:32;24.70;95.70
25877;DHT22;13692;47.480;19.216;2023-05-07T09:22:59;24.90;95.90
25877;DHT22;13692;47.480;19.216;2023-05-07T09:25:30;24.90;95.40
25877;DHT22;13692;47.480;19.216;2023-05-07T09:27:58;24.70;95.80
25877;DHT22;13692;47.480;19.216;2023-05-07T09:30:29;24.70;95.90
25877;DHT22;13692;47.480;19.216;2023-05-07T09:32:58;24.80;95.70
25877;DHT22;13692;47.480;19.216;2023-05-07T09:35:26;24.90;96.20
25877;DHT22;13692;47.480;19.216;2023-05-07T09:37:55;25.40;95.90
25877;DHT22;13692;47.480;19.216;2023-05-07T09:40:27;25.80;95.00
25877;DHT22;13692;47.480;19.216;2023-05-07T09:42:55;26.20;94.00
25877;DHT22;13692;47.480;19.216;2023-05-07T09:45:28;26.20;92.80
25877;DHT22;13692;47.480;19.216;2023-05-07T09:47:57;26.40;93.00
25877;DHT22;13692;47.480;19.216;2023-05-07T09:50:29;26.70;92.60
25877;DHT22;13692;47.480;19.216;2023-05-07T09:52:57;26.90;92.50
25877;DHT22;13692;47.480;19.216;2023-05-07T09:55:25;27.20;92.10
25877;DHT22;13692;47.480;19.216;2023-05-07T09:57:53;27.20;90.10
25877;DHT22;13692;47.480;19.216;2023-05-07T10:00:21;27.00;90.90
25877;DHT22;13692;47.480;19.216;2023-05-07T10:05:19;26.70;90.40
25877;DHT22;13692;47.480;19.216;2023-05-07T10:07:49;26.70;91.40
25877;DHT22;13692;47.480;19.216;2023-05-07T10:10:17;26.70;89.80
25877;DHT22;13692;47.480;19.216;2023-05-07T10:12:45;26.50;89.80
25877;DHT22;13692;47.480;19.216;2023-05-07T10:15:12;26.20;90.60
25877;DHT22;13692;47.480;19.216;2023-05-07T10:17:41;26.00;90.80
25877;DHT22;13692;47.480;19.216;2023-05-07T10:20:08;25.80;90.40
25877;DHT22;13692;47.480;19.216;2023-05-07T10:22:41;25.70;90.20
25877;DHT22;13692;47.480;19.216;2023-05-07T10:25:18;25.60;90.50
25877;DHT22;13692;47.480;19.216;2023-05-07T10:27:49;25.50;90.80
25877;DHT22;13692;47.480;19.216;2023-05-07T10:33:06;25.30;90.30
25877;DHT22;13692;47.480;19.216;2023-05-07T10:35:41;25.10;90.90
25877;DHT22;13692;47.480;19.216;2023-05-07T10:38:09;24.90;90.60
25877;DHT22;13692;47.480;19.216;2023-05-07T10:40:37;24.70;90.60
25877;DHT22;13692;47.480;19.216;2023-05-07T10:43:04;24.60;91.20
25877;DHT22;13692;47.480;19.216;2023-05-07T10:45:35;24.40;91.20
25877;DHT22;13692;47.480;19.216;2023-05-07T10:48:07;24.20;91.10
25877;DHT22;13692;47.480;19.216;2023-05-07T10:51:19;24.20;91.70
25877;DHT22;13692;47.480;19.216;2023-05-07T10:53:47;24.10;92.20
25877;DHT22;13692;47.480;19.216;2023-05-07T10:58:44;24.20;95.30
25877;DHT22;13692;47.480;19.216;2023-05-07T11:01:11;24.30;96.30
25877;DHT22;13692;47.480;19.216;2023-05-07T11:04:14;24.40;96.40
25877;DHT22;13692;47.480;19.216;2023-05-07T11:06:41;24.40;96.60
25877;DHT22;13692;47.480;19.216;2023-05-07T11:09:08;24.40;97.10
25877;DHT22;13692;47.480;19.216;2023-05-07T11:14:24;24.20;97.10
25877;DHT22;13692;47.480;19.216;2023-05-07T11:17:02;24.20;97.50
25877;DHT22;13692;47.480;19.216;2023-05-07T11:24:59;24.30;98.30
25877;DHT22;13692;47.480;19.216;2023-05-07T11:27:27;24.20;98.00
25877;DHT22;13692;47.480;19.216;2023-05-07T11:29:54;24.20;98.10
25877;DHT22;13692;47.480;19.216;2023-05-07T11:32:24;24.20;97.90
25877;DHT22;13692;47.480;19.216;2023-05-07T11:34:52;24.20;97.50
25877;DHT22;13692;47.480;19.216;2023-05-07T11:37:21;24.20;97.20
25877;DHT22;13692;47.480;19.216;2023-05-07T11:39:48;24.30;98.10
25877;DHT22;13692;47.480;19.216;2023-05-07T11:42:33;24.30;97.50
25877;DHT22;13692;47.480;19.216;2023-05-07T11:45:01;24.40;97.30
25877;DHT22;13692;47.480;19.216;2023-05-07T11:47:30;24.60;97.50
25877;DHT22;13692;47.480;19.216;2023-05-07T11:50:05;24.60;96.70
25877;DHT22;13692;47.480;19.216;2023-05-07T11:52:34;24.60;96.30
25877;DHT22;13692;47.480;19.216;2023-05-07T11:55:02;24.50;96.00
25877;DHT22;13692;47.480;19.216;2023-05-07T11:57:33;24.70;95.70
25877;DHT22;13692;47.480;19.216;2023-05-07T12:00:01;24.90;95.60
25877;DHT22;13692;47.480;19.216;2023-05-07T12:02:31;25.10;96.00
25877;DHT22;13692;47.480;19.216;2023-05-07T12:05:00;25.40;95.50
25877;DHT22;13692;47.480;19.216;2023-05-07T12:07:27;25.50;95.20
25877;DHT22;13692;47.480;19.216;2023-05-07T12:09:54;25.40;94.50
25877;DHT22;13692;47.480;19.216;2023-05-07T12:12:21;25.40;93.70
25877;DHT22;13692;47.480;19.216;2023-05-07T12:14:48;25.40;93.90
25877;DHT22;13692;47.480;19.216;2023-05-07T12:17:16;25.50;94.20
25877;DHT22;13692;47.480;19.216;2023-05-07T12:19:44;25.60;94.10
25877;DHT22;13692;47.480;19.216;2023-05-07T12:22:12;25.60;92.80
25877;DHT22;13692;47.480;19.216;2023-05-07T12:24:50;25.70;93.00
25877;DHT22;13692;47.480;19.216;2023-05-07T12:27:23;25.70;92.70
25877;DHT22;13692;47.480;19.216;2023-05-07T12:29:50;25.80;93.20
25877;DHT22;13692;47.480;19.216;2023-05-07T12:32:19;25.90;92.70
25877;DHT22;13692;47.480;19.216;2023-05-07T12:34:49;25.80;91.80
25877;DHT22;13692;47.480;19.216;2023-05-07T12:37:16;25.60;91.70
25877;DHT22;13692;47.480;19.216;2023-05-07T12:40:09;25.40;92.30
25877;DHT22;13692;47.480;19.216;2023-05-07T12:42:39;25.20;92.40
25877;DHT22;13692;47.480;19.216;2023-05-07T12:45:10;24.70;93.00
25877;DHT22;13692;47.480;19.216;2023-05-07T12:47:37;24.40;94.00
25877;DHT22;13692;47.480;19.216;2023-05-07T12:50:07;24.20;94.40
25877;DHT22;13692;47.480;19.216;2023-05-07T12:52:34;23.90;95.30
25877;DHT22;13692;47.480;19.216;2023-05-07T12:55:08;23.80;95.10
25877;DHT22;13692;47.480;19.216;2023-05-07T12:57:45;23.80;95.40
25877;DHT22;13692;47.480;19.216;2023-05-07T13:00:12;23.70;95.50
25877;DHT22;13692;47.480;19.216;2023-05-07T13:02:41;23.30;96.10
25877;DHT22;13692;47.480;19.216;2023-05-07T13:05:11;23.20;96.70
25877;DHT22;13692;47.480;19.216;2023-05-07T13:07:39;23.40;97.10
25877;DHT22;13692;47.480;19.216;2023-05-07T13:10:07;23.60;96.80
25877;DHT22;13692;47.480;19.216;2023-05-07T13:12:35;23.90;96.30
25877;DHT22;13692;47.480;19.216;2023-05-07T13:15:02;23.90;95.30
25877;DHT22;13692;47.480;19.216;2023-05-07T13:17:29;23.90;95.70
25877;DHT22;13692;47.480;19.216;2023-05-07T13:19:58;24.20;96.40
25877;DHT22;13692;47.480;19.216;2023-05-07T13:22:25;24.50;93.20
25877;DHT22;13692;47.480;19.216;2023-05-07T13:24:52;24.80;92.90
25877;DHT22;13692;47.480;19.216;2023-05-07T13:27:19;25.00;91.60
25877;DHT22;13692;47.480;19.216;2023-05-07T13:29:47;25.20;91.80
25877;DHT22;13692;47.480;19.216;2023-05-07T13:32:14;25.40;91.50
25877;DHT22;13692;47.480;19.216;2023-05-07T13:34:41;25.40;90.60
25877;DHT22;13692;47.480;19.216;2023-05-07T13:37:07;25.40;91.30
25877;DHT22;13692;47.480;19.216;2023-05-07T13:39:37;25.40;91.30
25877;DHT22;13692;47.480;19.216;2023-05-07T13:42:04;25.60;90.70
25877;DHT22;13692;47.480;19.216;2023-05-07T13:44:31;25.60;90.40
25877;DHT22;13692;47.480;19.216;2023-05-07T13:46:58;25.60;90.40
25877;DHT22;13692;47.480;19.216;2023-05-07T13:49:24;25.50;89.70
25877;DHT22;13692;47.480;19.216;2023-05-07T13:51:51;25.50;87.80
25877;DHT22;13692;47.480;19.216;2023-05-07T13:54:18;25.50;88.60
25877;DHT22;13692;47.480;19.216;2023-05-07T13:56:45;25.40;88.10
25877;DHT22;13692;47.480;19.216;2023-05-07T13:59:12;25.40;89.20
25877;DHT22;13692;47.480;19.216;2023-05-07T14:01:41;25.40;88.40
25877;DHT22;13692;47.480;19.216;2023-05-07T14:04:08;25.30;88.70
25877;DHT22;13692;47.480;19.216;2023-05-07T14:06:35;25.30;88.30
25877;DHT22;13692;47.480;19.216;2023-05-07T14:09:02;25.30;88.60
25877;DHT22;13692;47.480;19.216;2023-05-07T14:11:28;25.40;88.60
25877;DHT22;13692;47.480;19.216;2023-05-07T14:13:56;25.40;87.90
25877;DHT22;13692;47.480;19.216;2023-05-07T14:16:23;25.40;87.80
25877;DHT22;13692;47.480;19.216;2023-05-07T14:18:50;25.30;87.80
25877;DHT22;13692;47.480;19.216;2023-05-07T14:21:17;25.30;89.30
25877;DHT22;13692;47.480;19.216;2023-05-07T14:23:44;25.30;89.30
25877;DHT22;13692;47.480;19.216;2023-05-07T14:26:11;25.40;89.10
25877;DHT22;13692;47.480;19.216;2023-05-07T14:28:38;25.40;88.90
25877;DHT22;13692;47.480;19.216;2023-05-07T14:31:06;25.40;87.10
25877;DHT22;13692;47.480;19.216;2023-05-07T14:33:33;25.40;86.10
25877;DHT22;13692;47.480;19.216;2023-05-07T14:36:00;25.30;91.10
25877;DHT22;13692;47.480;19.216;2023-05-07T14:38:27;25.20;90.90
25877;DHT22;13692;47.480;19.216;2023-05-07T14:40:54;25.10;90.30
25877;DHT22;13692;47.480;19.216;2023-05-07T14:43:22;25.10;90.10
25877;DHT22;13692;47.480;19.216;2023-05-07T14:45:49;25.00;90.00
25877;DHT22;13692;47.480;19.216;2023-05-07T14:48:16;24.90;89.50
25877;DHT22;13692;47.480;19.216;2023-05-07T14:50:47;24.80;90.30
25877;DHT22;13692;47.480;19.216;2023-05-07T14:53:15;24.90;91.20
25877;DHT22;13692;47.480;19.216;2023-05-07T14:55:42;24.80;90.10
25877;DHT22;13692;47.480;19.216;2023-05-07T14:58:10;24.80;90.20
25877;DHT22;13692;47.480;19.216;2023-05-07T15:00:37;24.70;90.10
25877;DHT22;13692;47.480;19.216;2023-05-07T15:03:09;24.70;90.00
25877;DHT22;13692;47.480;19.216;2023-05-07T15:05:37;24.60;90.50
25877;DHT22;13692;47.480;19.216;2023-05-07T15:08:04;24.60;90.40
25877;DHT22;13692;47.480;19.216;2023-05-07T15:10:35;24.70;91.80
25877;DHT22;13692;47.480;19.216;2023-05-07T15:13:09;24.60;91.90
25877;DHT22;13692;47.480;19.216;2023-05-07T15:15:42;24.60;92.70
25877;DHT22;13692;47.480;19.216;2023-05-07T15:18:10;24.60;91.60
25877;DHT22;13692;47.480;19.216;2023-05-07T15:20:37;24.60;91.70
25877;DHT22;13692;47.480;19.216;2023-05-07T15:23:05;24.60;91.70
25877;DHT22;13692;47.480;19.216;2023-05-07T15:25:32;24.50;91.20
25877;DHT22;13692;47.480;19.216;2023-05-07T15:28:00;24.50;91.00
25877;DHT22;13692;47.480;19.216;2023-05-07T15:30:27;24.40;91.50
25877;DHT22;13692;47.480;19.216;2023-05-07T15:32:54;24.20;91.80
25877;DHT22;13692;47.480;19.216;2023-05-07T15:35:22;24.10;91.80
25877;DHT22;13692;47.480;19.216;2023-05-07T15:37:49;24.00;92.00